Terminal Aerodrome Forecast
Issued by NWS

Home | Current Version | Previous Version | Graphics & Text | Print | Product List | Glossary On
Versions: 1 2 3 4 5 6 7 8 9 10 11 12 13 14 15 16 17 18 19 20 21 22 23 24 25
000
FTUS43 KGRB 190528
TAFRHI
TAF
KRHI 190528Z 1906/2006 23005KT 4SM BR SKC
      TEMPO 1907/1909 2SM BR BKN006
     FM190900 22004KT 2SM BR BKN006
      TEMPO 1910/1914 1SM BR OVC003
     FM191500 21006KT 5SM BR BKN008
     FM191700 19005KT P6SM SCT010
     FM200400 19003KT 5SM BR BKN015=

USA.gov is the U.S. government's official web portal to all federal, state and local government web resources and services.